Iskenderun, Turkey
Current Conditions -  °F | °C
As of 5:50 AM on Wednesday 26 Nov 2014 (Local Time) from LTDA Reporting Station
Broken Clouds Broken Clouds  
Wind Chill: 50°   Ceiling: 3000
Heat Index: 50°   Visibility: 6mi
Dew Point: 50°   Wind: 7mph
Humidity: 100%   Direction: 20°NNE
Pressure: 29.77"   Gusts: NA
Location:  36.58°N, 36.17°E
Report Text: LTDA 260250Z 02006KT 9999 BKN030 BKN080 10/10 Q1008 RESHRA
Loading
Personal Weather Stations






























Interactive Weather Map New forecast layout! Learn more

10-Day Weather Forecast

Advertisements
Track Severe Weather on mobile